Terminal Aerodrome Forecast
Issued by NWS

Home | Current Version | Previous Version | Text Only | Print | Product List | Glossary On
Versions: 1 2 3 4 5 6 7 8 9 10 11 12 13 14 15 16
000
FTUS43 KDVN 061740
TAFCID
TAF
KCID 061740Z 0618/0718 30020G25KT P6SM SCT020
     FM070000 27012KT P6SM SKC
     FM070900 28013KT P6SM SCT040 SCT100=

USA.gov is the U.S. government's official web portal to all federal, state and local government web resources and services.